Colorado Springs, CO (80951)

12:27 PM MDT on August 21, 2014 (GMT -0600)
Weather or not | Change Station
CLOSE
Current Station
Personal Weather Station
Location: Colorado Springs, CO
Elevation: 6545 ft
Nearby Weather Stations

Elev 6545 ft 38.88 °N, 104.70 °W | Updated 3 seconds ago

Scattered Clouds
Scattered Clouds
79.5 °F
Feels Like 79 °F
N
0.0
Wind Variable Wind from SSE
Gusts 1.0 mph

Today
High -- | Low -- °F
--% Chance of Precip.
Yesterday
High -- | Low -- °F
Precip. -- in
6:17 AM 7:45 PM
Waning Crescent, 13% visible
Pressure 29.89 in
Visibility 10.0 miles
Clouds Few 8000 ft
Scattered Clouds 22000 ft
Heat Index 79 °F
Dew Point 49 °F
Humidity 35%
Rainfall 0.00 in
Snow Depth Not available.
UV 8 out of 12
Pollen 9.30 out of 12
Ozone Good
PM2.5 Good
Flu Activity Not available.
METAR KCOS 211754Z 15009KT 10SM FEW080 SCT220 26/07 A3018 RMK AO2 SLP122 T02610072 10261 20150 50000

More Conditions Fewer Conditions

Pressure 29.89 in
Visibility 10.0 miles
Clouds Few 8000 ft
Scattered Clouds 22000 ft
Heat Index 79 °F
Dew Point 49 °F
Humidity 35%
Rainfall 0.00 in
Snow Depth Not available.
UV 8 out of 12
Pollen 9.30 out of 12
Ozone Good
PM2.5 Good
Flu Activity Not available.
METAR KCOS 211754Z 15009KT 10SM FEW080 SCT220 26/07 A3018 RMK AO2 SLP122 T02610072 10261 20150 50000

More Conditions Fewer Conditions

10-Day Weather Forecast

Almanac

Astronomy

Aug. 21, 2014 Rise Set
Actual Time 6:17 AM MDT 7:45 PM MDT
Civil Twilight 5:49 AM MDT 8:13 PM MDT
Nautical Twilight 5:16 AM MDT 8:46 PM MDT
Astronomical Twilight 4:40 AM MDT 9:22 PM MDT
Moon 2:51 AM MDT 5:14 PM MDT
Length of Visible Light 14h 23m
Length of Day
13h 27m
Tomorrow will be 2m 19s shorter.
Waning Crescent, 13% of the Moon is Illuminated
Today
Waning Crescent
Aug 25
New
Sep 2
First Quarter
Sep 8
Full
Sep 15
Last Quarter

Today's Extremes

State Highs State Lows

Community

WunderPhotos

Upload Photos

1,745,992 photos uploaded!

WunderBlogs® & News

Nearby

Air Quality

  Air Quality AQ Index Pollutant
Yesterday Good
OZONE
Yesterday Good
PM2.5
Current Good
OZONE
Current Good
PM2.5
Thursday Good
PM2.5
Thursday Good
OZONE

Snow Depth

Station Depth Elevation
Rough And Tumble 0 in 10360 ft
Loveland Basin 0 in 11400 ft
Fremont Pass 177 in 11400 ft
Ute Creek 0 in 10650 ft
Summit Ranch 0 in 9400 ft

Earthquake Activity

City Distance Mag. Time & Date
No recent earthquake activity has been reported nearby.
Minimum magnitude displayed is 2.5.

Coastal Water Temperatures

Place Temperature
No Stations Reporting

Nearby Weather Stations